Time;durP1;ratioP1;P1;durP2;ratioP2;P2;SDS_P1;SDS_P2;PMS_P1;PMS_P2;Temp;Humidity;BMP_temperature;BMP_pressure;BME280_temperature;BME280_humidity;BME280_pressure;Samples;Min_cycle;Max_cycle;Signal;HPM_P1;HPM_P2
2023/10/20 08:57:14;;;;;;;;;;;;;;;7.63;100.00;98890.28;1750458;81;20120;-69
2023/10/20 08:59:45;;;;;;;;;;;;;;;7.62;100.00;98880.84;1779309;80;20427;-68
2023/10/20 09:02:12;;;;;;;;;;;;;;;7.63;100.00;98881.21;1751398;81;20229;-61
2023/10/20 09:04:40;;;;;;;;;;;;;;;7.64;100.00;98873.80;1758579;81;20394;-66
2023/10/20 09:25:11;;;;;;;;;;;;;;;7.78;100.00;98875.54;1757553;82;20105;-73
2023/10/20 09:27:38;;;;;;;;;;;;;;;7.78;100.00;98867.30;1718125;81;20131;-65
2023/10/20 09:30:11;;;;;;;;;;;;;;;7.82;100.00;98869.23;1735531;81;20163;-62
2023/10/20 09:32:38;;;;;;;;;;;;;;;7.86;100.00;98872.84;1743511;81;20097;-62
2023/10/20 09:35:05;;;;;;;;;;;;;;;7.90;100.00;98872.18;1741583;81;20127;-67
2023/10/20 09:37:31;;;;;;;;;;;;;;;7.95;100.00;98864.48;1747960;81;20135;-62
2023/10/20 09:40:07;;;;;;;;;;;;;;;7.98;100.00;98860.40;1755168;81;20163;-62
2023/10/20 09:42:46;;;;;;;;;;;;;;;8.03;100.00;98858.31;1759552;81;20362;-69
2023/10/20 09:45:16;;;;;;;;;;;;;;;8.10;100.00;98863.94;1766045;81;20201;-69
2023/10/20 09:47:45;;;;;;;;;;;;;;;8.15;100.00;98867.53;1760672;80;20097;-69
2023/10/20 09:50:13;;;;;;;;;;;;;;;8.17;100.00;98868.27;1757681;81;20318;-73
2023/10/20 09:52:40;;;;;;;;;;;;;;;8.17;100.00;98869.09;1758267;80;20101;-64
2023/10/20 09:55:08;;;;;;;;;;;;;;;8.21;100.00;98863.25;1758733;80;20222;-63
2023/10/20 09:57:35;;;;;;;;;;;;;;;8.22;100.00;98863.62;1766383;81;20159;-70
2023/10/20 10:00:09;;;;;;;;;;;;;;;8.22;100.00;98864.45;1748754;82;20087;-65
2023/10/20 10:02:36;;;;;;;;;;;;;;;8.21;100.00;98864.55;1757993;81;20096;-66
2023/10/20 10:05:09;;;;;;;;;;;;;;;8.22;100.00;98855.84;1750621;81;20437;-66
2023/10/20 10:07:39;;;;;;;;;;;;;;;8.23;100.00;98847.95;1725014;81;20199;-64
2023/10/20 10:10:06;;;;;;;;;;;;;;;8.25;100.00;98853.05;1765352;81;20161;-65
2023/10/20 10:12:33;;;;;;;;;;;;;;;8.27;100.00;98844.23;1761093;81;20120;-68
2023/10/20 10:15:07;;;;;;;;;;;;;;;8.31;100.00;98857.84;1760159;81;20511;-70
2023/10/20 10:17:47;;;;;;;;;;;;;;;8.31;100.00;98843.57;1754905;81;20154;-70
2023/10/20 10:20:22;;;;;;;;;;;;;;;8.33;100.00;98849.52;1747747;82;20188;-68
2023/10/20 10:23:01;;;;;;;;;;;;;;;8.32;100.00;98847.83;1752528;82;20155;-69
2023/10/20 10:25:42;;;;;;;;;;;;;;;8.29;100.00;98850.63;1720087;82;20184;-67
2023/10/20 10:28:11;;;;;;;;;;;;;;;8.30;100.00;98841.91;1722750;83;20422;-66
2023/10/20 10:30:38;;;;;;;;;;;;;;;8.31;100.00;98841.81;1716068;83;20117;-64
2023/10/20 10:33:11;;;;;;;;;;;;;;;8.32;100.00;98837.02;1718987;83;20102;-67
2023/10/20 10:35:38;;;;;;;;;;;;;;;8.35;100.00;98831.63;1709425;83;20125;-69
2023/10/20 10:38:08;;;;;;;;;;;;;;;8.37;100.00;98827.64;1720673;83;20394;-64
2023/10/20 10:40:34;;;;;;;;;;;;;;;8.37;100.00;98823.75;1722630;83;20132;-64
2023/10/20 10:43:00;;;;;;;;;;;;;;;8.38;100.00;98820.22;1718473;82;20135;-70
2023/10/20 10:45:31;;;;;;;;;;;;;;;8.40;100.00;98823.52;1717918;83;20097;-69
2023/10/20 10:58:16;;;;;;;;;;;;;;;8.51;100.00;98805.95;1717863;83;20125;-65
2023/10/20 11:00:44;;;;;;;;;;;;;;;8.53;100.00;98810.57;1719975;83;20165;-72
2023/10/20 11:03:13;;;;;;;;;;;;;;;8.53;100.00;98809.27;1718803;82;20101;-62
2023/10/20 11:20:47;;;;;;;;;;;;;;;8.58;100.00;98830.09;1752670;79;20084;-64
2023/10/20 11:23:14;;;;;;;;;;;;;;;8.60;100.00;98829.52;1753846;81;20166;-68
2023/10/20 11:25:42;;;;;;;;;;;;;;;8.64;100.00;98841.82;1761170;81;20114;-71
2023/10/20 11:28:09;;;;;;;;;;;;;;;8.68;100.00;98851.06;1754421;81;20122;-65
2023/10/20 11:30:37;;;;;;;;;;;;;;;8.71;100.00;98851.33;1758780;81;20408;-64
2023/10/20 11:33:04;;;;;;;;;;;;;;;8.72;100.00;98850.39;1770580;81;20390;-66
2023/10/20 11:35:30;;;;;;;;;;;;;;;8.72;100.00;98852.98;1765785;81;20108;-63
2023/10/20 11:38:00;;;;;;;;;;;;;;;8.70;100.00;98858.28;1705858;84;20172;-65
2023/10/20 11:40:29;;;;;;;;;;;;;;;8.71;100.00;98857.34;1702882;84;20193;-63
2023/10/20 11:42:56;;;;;;;;;;;;;;;8.73;100.00;98836.02;1704807;84;20406;-67
2023/10/20 11:45:25;;;;;;;;;;;;;;;8.77;100.00;98834.87;1701265;84;20109;-64
2023/10/20 11:47:52;;;;;;;;;;;;;;;8.81;100.00;98825.92;1701626;84;20135;-69
2023/10/20 11:50:19;;;;;;;;;;;;;;;8.84;100.00;98827.48;1701486;84;20128;-68
2023/10/20 11:52:47;;;;;;;;;;;;;;;8.88;100.00;98824.57;1704489;84;20195;-66
2023/10/20 11:55:14;;;;;;;;;;;;;;;8.91;100.00;98838.64;1705904;84;20138;-65
2023/10/20 11:57:41;;;;;;;;;;;;;;;8.93;100.00;98841.14;1705051;84;20455;-67
2023/10/20 12:00:09;;;;;;;;;;;;;;;8.91;100.00;98846.90;1705735;84;20145;-65
2023/10/20 12:02:39;;;;;;;;;;;;;;;8.89;100.00;98840.98;1736109;81;20130;-61
2023/10/20 12:05:06;;;;;;;;;;;;;;;8.89;100.00;98838.38;1754626;81;20380;-68
2023/10/20 12:07:32;;;;;;;;;;;;;;;8.89;100.00;98839.22;1754981;81;20178;-67
2023/10/20 12:10:05;;;;;;;;;;;;;;;8.89;100.00;98852.66;1757237;81;20143;-70
2023/10/20 12:12:36;;;;;;;;;;;;;;;8.86;100.00;98857.59;1757626;81;20104;-65
2023/10/20 12:15:03;;;;;;;;;;;;;;;8.84;100.00;98855.56;1756413;81;20111;-64
2023/10/20 12:17:30;;;;;;;;;;;;;;;8.86;100.00;98848.97;1762673;80;20115;-67
2023/10/20 12:19:57;;;;;;;;;;;;;;;8.85;100.00;98835.63;1777588;80;20103;-73
2023/10/20 12:22:25;;;;;;;;;;;;;;;8.85;100.00;98833.86;1777776;80;20096;-71
2023/10/20 12:24:54;;;;;;;;;;;;;;;8.87;100.00;98846.73;1774942;80;20096;-66
2023/10/20 12:27:23;;;;;;;;;;;;;;;8.88;100.00;98855.72;1781965;80;20096;-72
2023/10/20 12:29:49;;;;;;;;;;;;;;;8.88;100.00;98862.68;1777239;80;20153;-64
2023/10/20 12:32:16;;;;;;;;;;;;;;;8.87;100.00;98859.72;1782909;80;20107;-67
2023/10/20 12:34:43;;;;;;;;;;;;;;;8.87;100.00;98868.34;1775911;80;20099;-64
2023/10/20 12:37:10;;;;;;;;;;;;;;;8.86;100.00;98872.33;1779321;80;20654;-66
2023/10/20 12:39:40;;;;;;;;;;;;;;;8.83;100.00;98866.88;1777327;80;20963;-68
2023/10/20 12:42:06;;;;;;;;;;;;;;;8.82;100.00;98869.58;1791470;80;20190;-68
2023/10/20 12:44:36;;;;;;;;;;;;;;;8.81;100.00;98870.05;1780889;80;20106;-66
2023/10/20 12:47:03;;;;;;;;;;;;;;;8.80;100.00;98876.64;1775280;80;20144;-68
2023/10/20 12:49:34;;;;;;;;;;;;;;;8.78;100.00;98875.47;1765397;80;20139;-64
2023/10/20 12:52:02;;;;;;;;;;;;;;;8.76;100.00;98881.70;1791034;80;20112;-71
2023/10/20 12:54:29;;;;;;;;;;;;;;;8.77;100.00;98884.66;1773494;80;20377;-66
2023/10/20 12:56:58;;;;;;;;;;;;;;;8.76;100.00;98876.05;1768706;80;20094;-64
2023/10/20 12:59:25;;;;;;;;;;;;;;;8.77;100.00;98880.30;1789465;80;20109;-64
2023/10/20 13:01:52;;;;;;;;;;;;;;;8.76;100.00;98883.83;1784725;80;20157;-65
2023/10/20 13:04:20;;;;;;;;;;;;;;;8.75;100.00;98878.27;1775055;80;20137;-65
2023/10/20 13:06:48;;;;;;;;;;;;;;;8.74;100.00;98879.20;1774298;80;20174;-69
2023/10/20 13:09:17;;;;;;;;;;;;;;;8.73;100.00;98878.01;1779205;80;20746;-65
2023/10/20 13:11:44;;;;;;;;;;;;;;;8.69;100.00;98873.48;1782753;80;20139;-69
2023/10/20 13:14:10;;;;;;;;;;;;;;;8.66;100.00;98874.52;1762768;80;20117;-70
2023/10/20 13:16:37;;;;;;;;;;;;;;;8.63;100.00;98872.13;1753010;80;20107;-72
2023/10/20 13:19:03;;;;;;;;;;;;;;;8.60;100.00;98886.60;1756592;80;20394;-71
2023/10/20 13:21:31;;;;;;;;;;;;;;;8.58;100.00;98885.88;1747954;82;20432;-71
2023/10/20 13:23:58;;;;;;;;;;;;;;;8.56;100.00;98894.22;1747887;82;20103;-70
2023/10/20 13:26:24;;;;;;;;;;;;;;;8.55;100.00;98896.45;1748959;82;20212;-70
2023/10/20 13:28:51;;;;;;;;;;;;;;;8.54;100.00;98895.25;1748508;82;20374;-70
2023/10/20 13:31:21;;;;;;;;;;;;;;;8.56;100.00;98901.17;1774105;81;20097;-68
2023/10/20 13:33:46;;;;;;;;;;;;;;;8.54;100.00;98896.08;1753509;81;20107;-64
2023/10/20 13:36:12;;;;;;;;;;;;;;;8.54;100.00;98897.38;1719262;82;20127;-70
2023/10/20 13:38:39;;;;;;;;;;;;;;;8.57;100.00;98887.27;1759298;81;20225;-69
2023/10/20 13:41:05;;;;;;;;;;;;;;;8.58;100.00;98888.93;1765258;81;20107;-71
2023/10/20 13:43:32;;;;;;;;;;;;;;;8.60;100.00;98893.55;1771230;81;20135;-68
2023/10/20 13:45:58;;;;;;;;;;;;;;;8.59;100.00;98897.08;1770649;81;20163;-70
2023/10/20 13:48:25;;;;;;;;;;;;;;;8.56;100.00;98886.91;1766421;81;20158;-61
2023/10/20 13:50:51;;;;;;;;;;;;;;;8.54;100.00;98884.88;1766582;81;20136;-65
2023/10/20 13:53:18;;;;;;;;;;;;;;;8.54;100.00;98887.00;1759172;81;20134;-64
2023/10/20 13:55:44;;;;;;;;;;;;;;;8.53;100.00;98881.91;1760000;81;20154;-70
2023/10/20 13:58:11;;;;;;;;;;;;;;;8.52;100.00;98895.35;1763246;80;20170;-72
2023/10/20 14:00:38;;;;;;;;;;;;;;;8.50;100.00;98889.43;1761625;80;20152;-66
2023/10/20 14:03:05;;;;;;;;;;;;;;;8.49;100.00;98886.47;1753393;81;20148;-65
